createdAt,value
2018-05-17T00:02:25.493Z,99346.16
2018-05-17T00:04:51.880Z,99339.64
2018-05-17T00:07:18.285Z,99343.88
2018-05-17T00:09:44.637Z,99347.06
2018-05-17T00:12:11.088Z,99348.45
2018-05-17T00:14:37.585Z,99340.55
2018-05-17T00:17:04.112Z,99336.94
2018-05-17T00:19:30.477Z,99340.60
2018-05-17T00:21:56.813Z,99329.28
2018-05-17T00:24:23.213Z,99327.16
2018-05-17T00:26:49.517Z,99324.64
2018-05-17T00:29:15.878Z,99319.17
2018-05-17T00:31:42.282Z,99324.57
2018-05-17T00:34:08.627Z,99335.83
2018-05-17T00:36:34.971Z,99334.94
2018-05-17T00:39:01.711Z,99324.96
2018-05-17T00:41:28.162Z,99324.34
2018-05-17T00:43:54.534Z,99321.13
2018-05-17T00:46:20.885Z,99326.32
2018-05-17T00:48:47.257Z,99322.33
2018-05-17T00:51:13.670Z,99316.49
2018-05-17T00:53:40.023Z,99318.52
2018-05-17T00:56:07.134Z,99322.08
2018-05-17T00:58:33.488Z,99322.49
2018-05-17T01:00:59.859Z,99323.91
2018-05-17T01:03:27.098Z,99321.59
2018-05-17T01:05:53.457Z,99320.14
2018-05-17T01:08:19.822Z,99315.95
2018-05-17T01:10:46.265Z,99316.01
2018-05-17T01:13:12.618Z,99320.44
2018-05-17T01:15:39.014Z,99324.00
2018-05-17T01:18:05.416Z,99320.70
2018-05-17T01:20:31.774Z,99319.03
2018-05-17T01:22:58.158Z,99332.63
2018-05-17T01:25:24.546Z,99334.24
2018-05-17T01:27:50.986Z,99332.69
2018-05-17T01:30:17.431Z,99337.21
2018-05-17T01:32:43.893Z,99344.16
2018-05-17T01:35:10.278Z,99338.04
2018-05-17T01:37:49.022Z,99335.31
2018-05-17T01:40:15.331Z,99345.22
2018-05-17T01:42:41.738Z,99352.92
2018-05-17T01:45:08.100Z,99351.15
2018-05-17T01:47:34.523Z,99345.92
2018-05-17T01:50:00.898Z,99350.34
2018-05-17T01:52:27.334Z,99348.06
2018-05-17T01:54:53.684Z,99350.03
2018-05-17T01:57:20.077Z,99337.70
2018-05-17T01:59:46.460Z,99340.73
2018-05-17T02:02:14.733Z,99343.28
2018-05-17T02:04:41.145Z,99339.94
2018-05-17T02:07:07.522Z,99343.80
2018-05-17T02:09:33.897Z,99345.00
2018-05-17T02:12:00.271Z,99344.11
2018-05-17T02:14:26.678Z,99344.23
2018-05-17T02:16:53.184Z,99351.92
2018-05-17T02:19:19.635Z,99361.73
2018-05-17T02:21:45.924Z,99365.05
2018-05-17T02:24:12.334Z,99366.41
2018-05-17T02:26:38.718Z,99368.31
2018-05-17T02:29:05.225Z,99359.80
2018-05-17T02:31:31.759Z,99362.45
2018-05-17T02:33:58.116Z,99354.31
2018-05-17T02:36:24.481Z,99354.06
2018-05-17T02:38:50.908Z,99349.41
2018-05-17T02:41:17.302Z,99347.78
2018-05-17T02:43:43.703Z,99349.33
2018-05-17T02:46:10.185Z,99353.56
2018-05-17T02:48:36.549Z,99348.72
2018-05-17T02:51:02.957Z,99350.07
2018-05-17T02:53:29.330Z,99353.97
2018-05-17T02:55:55.864Z,99352.38
2018-05-17T02:58:22.233Z,99356.21
2018-05-17T03:00:48.610Z,99357.34
2018-05-17T03:03:14.990Z,99357.70
2018-05-17T03:05:41.408Z,99359.44
2018-05-17T03:08:07.800Z,99365.44
2018-05-17T03:10:34.173Z,99369.83
2018-05-17T03:13:00.580Z,99372.16
2018-05-17T03:15:26.963Z,99367.09
2018-05-17T03:17:53.414Z,99376.26
2018-05-17T03:20:19.824Z,99375.63
2018-05-17T03:22:46.242Z,99378.01
2018-05-17T03:25:12.635Z,99370.15
2018-05-17T03:27:39.142Z,99368.56
2018-05-17T03:30:05.474Z,99372.08
2018-05-17T03:32:31.851Z,99364.91
2018-05-17T03:34:58.293Z,99367.83
2018-05-17T03:37:24.649Z,99366.52
2018-05-17T03:39:51.036Z,99369.63
2018-05-17T03:42:17.454Z,99371.98
2018-05-17T03:44:43.846Z,99370.47
2018-05-17T03:47:10.222Z,99375.17
2018-05-17T03:49:36.628Z,99379.05
2018-05-17T03:52:02.981Z,99387.05
2018-05-17T03:54:29.349Z,99383.32
2018-05-17T03:56:56.226Z,99385.35
2018-05-17T03:59:22.610Z,99391.59
2018-05-17T04:02:01.310Z,99396.66
2018-05-17T04:04:39.765Z,99387.75
2018-05-17T04:07:06.093Z,99388.45
2018-05-17T04:09:32.385Z,99392.18
2018-05-17T04:11:58.762Z,99396.24
2018-05-17T04:14:25.152Z,99391.96
2018-05-17T04:16:51.705Z,99382.27
2018-05-17T04:19:18.257Z,99383.27
2018-05-17T04:21:44.613Z,99386.33
2018-05-17T04:24:11.032Z,99386.53
2018-05-17T04:26:37.393Z,99393.30
2018-05-17T04:29:04.826Z,99385.63
2018-05-17T04:31:31.210Z,99395.38
2018-05-17T04:33:57.755Z,99400.66
2018-05-17T04:36:24.486Z,99409.52
2018-05-17T04:38:50.861Z,99415.55
2018-05-17T04:41:17.251Z,99409.34
2018-05-17T04:43:43.641Z,99407.75
2018-05-17T04:46:10.102Z,99417.85
2018-05-17T04:48:36.625Z,99418.43
2018-05-17T04:51:03.063Z,99412.62
2018-05-17T04:53:29.437Z,99412.67
2018-05-17T04:55:55.817Z,99410.58
2018-05-17T04:58:22.214Z,99411.27
2018-05-17T05:00:48.705Z,99408.42
2018-05-17T05:03:15.265Z,99402.27
2018-05-17T05:05:41.774Z,99399.02
2018-05-17T05:08:08.467Z,99397.98
2018-05-17T05:10:36.070Z,99390.30
2018-05-17T05:13:02.656Z,99390.31
2018-05-17T05:15:29.017Z,99393.28
2018-05-17T05:17:55.550Z,99393.38
2018-05-17T05:20:21.941Z,99390.55
2018-05-17T05:22:48.321Z,99390.44
2018-05-17T05:25:14.908Z,99397.70
2018-05-17T05:27:41.366Z,99398.20
2018-05-17T05:30:07.938Z,99399.59
2018-05-17T05:32:34.371Z,99405.66
2018-05-17T05:35:00.960Z,99412.76
2018-05-17T05:37:27.409Z,99408.62
2018-05-17T05:39:53.844Z,99412.09
2018-05-17T05:42:20.448Z,99416.84
2018-05-17T05:44:46.898Z,99425.39
2018-05-17T05:47:13.578Z,99424.81
2018-05-17T05:49:40.066Z,99424.97
2018-05-17T05:52:06.784Z,99422.69
2018-05-17T05:54:33.418Z,99425.39
2018-05-17T05:56:59.887Z,99427.17
2018-05-17T05:59:26.775Z,99429.53
2018-05-17T06:01:53.398Z,99435.06
2018-05-17T06:04:20.253Z,99437.23
2018-05-17T06:06:46.674Z,99441.22
2018-05-17T06:09:13.107Z,99444.42
2018-05-17T06:11:39.655Z,99446.22
2018-05-17T06:14:06.113Z,99452.94
2018-05-17T06:16:32.578Z,99459.13
2018-05-17T06:18:59.055Z,99455.20
2018-05-17T06:21:25.618Z,99455.00
2018-05-17T06:23:52.514Z,99441.50
2018-05-17T06:26:18.899Z,99440.44
2018-05-17T06:28:45.407Z,99442.53
2018-05-17T06:31:11.937Z,99448.47
2018-05-17T06:33:38.381Z,99445.45
2018-05-17T06:36:04.944Z,99446.34
2018-05-17T06:38:31.549Z,99453.52
2018-05-17T06:40:57.967Z,99455.34
2018-05-17T06:43:24.544Z,99452.50
2018-05-17T06:45:51.038Z,99446.44
2018-05-17T06:48:17.434Z,99436.45
2018-05-17T06:50:43.927Z,99440.05
2018-05-17T06:53:10.482Z,99434.55
2018-05-17T06:55:36.999Z,99435.72
2018-05-17T06:58:03.433Z,99434.80
2018-05-17T07:00:29.963Z,99426.66
2018-05-17T07:02:56.502Z,99429.50
2018-05-17T07:05:23.038Z,99427.52
2018-05-17T07:07:49.488Z,99431.99
2018-05-17T07:10:16.091Z,99442.97
2018-05-17T07:12:42.642Z,99436.73
2018-05-17T07:15:09.023Z,99425.30
2018-05-17T07:17:35.399Z,99432.86
2018-05-17T07:20:01.782Z,99429.94
2018-05-17T07:22:28.178Z,99425.35
2018-05-17T07:24:54.587Z,99427.01
2018-05-17T07:27:20.990Z,99424.50
2018-05-17T07:29:47.443Z,99416.44
2018-05-17T07:32:13.957Z,99424.94
2018-05-17T07:34:41.105Z,99416.47
2018-05-17T07:37:07.530Z,99418.20
2018-05-17T07:39:34.151Z,99418.86
2018-05-17T07:42:00.583Z,99411.89
2018-05-17T07:44:26.961Z,99415.19
2018-05-17T07:46:53.759Z,99420.70
2018-05-17T07:49:20.131Z,99411.79
2018-05-17T07:51:46.512Z,99412.75
2018-05-17T07:54:12.882Z,99402.30
2018-05-17T07:56:39.309Z,99406.48
2018-05-17T07:59:05.898Z,99397.81
2018-05-17T08:01:32.291Z,99397.59
2018-05-17T08:03:58.899Z,99388.50
2018-05-17T08:06:25.266Z,99392.70
2018-05-17T08:08:51.660Z,99394.30
2018-05-17T08:11:18.081Z,99393.13
2018-05-17T08:13:45.294Z,99383.30
2018-05-17T08:16:11.714Z,99391.97
2018-05-17T08:18:38.042Z,99383.69
2018-05-17T08:21:04.469Z,99388.12
2018-05-17T08:23:30.800Z,99386.85
2018-05-17T08:25:57.194Z,99384.16
2018-05-17T08:28:23.665Z,99380.21
2018-05-17T08:30:50.179Z,99383.09
2018-05-17T08:33:16.599Z,99379.33
2018-05-17T08:35:42.958Z,99383.36
2018-05-17T08:38:09.358Z,99388.52
2018-05-17T08:40:35.786Z,99385.41
2018-05-17T08:43:02.230Z,99375.91
2018-05-17T08:45:28.625Z,99387.94
2018-05-17T08:47:56.085Z,99389.71
2018-05-17T08:50:22.442Z,99385.00
2018-05-17T08:52:48.870Z,99387.11
2018-05-17T08:55:15.371Z,99385.00
2018-05-17T08:57:41.737Z,99387.17
2018-05-17T09:00:08.070Z,99380.67
2018-05-17T09:02:34.455Z,99387.44
2018-05-17T09:05:00.837Z,99382.90
2018-05-17T09:07:27.251Z,99374.39
2018-05-17T09:09:53.625Z,99377.28
2018-05-17T09:12:20.025Z,99376.52
2018-05-17T09:14:46.803Z,99376.45
2018-05-17T09:17:13.411Z,99377.70
2018-05-17T09:19:39.852Z,99377.64
2018-05-17T09:22:06.249Z,99374.86
2018-05-17T09:24:32.695Z,99376.72
2018-05-17T09:26:59.029Z,99375.17
2018-05-17T09:29:25.707Z,99368.48
2018-05-17T09:31:52.025Z,99372.08
2018-05-17T09:34:18.350Z,99368.63
2018-05-17T09:36:44.807Z,99362.67
2018-05-17T09:39:11.198Z,99372.89
2018-05-17T09:41:37.732Z,99363.23
2018-05-17T09:44:04.390Z,99364.16
2018-05-17T09:46:30.782Z,99363.98
2018-05-17T09:48:57.397Z,99372.53
2018-05-17T09:51:24.022Z,99368.34
2018-05-17T09:53:50.529Z,99370.95
2018-05-17T09:56:17.269Z,99360.96
2018-05-17T09:58:43.661Z,99362.73
2018-05-17T10:01:10.040Z,99365.25
2018-05-17T10:03:36.473Z,99365.69
2018-05-17T10:06:02.884Z,99360.09
2018-05-17T10:08:29.601Z,99357.52
2018-05-17T10:10:56.336Z,99354.35
2018-05-17T10:13:22.738Z,99352.98
2018-05-17T10:15:49.097Z,99347.52
2018-05-17T10:18:15.502Z,99344.95
2018-05-17T10:20:42.043Z,99345.35
2018-05-17T10:23:08.520Z,99342.91
2018-05-17T10:25:35.111Z,99338.53
2018-05-17T10:28:01.532Z,99335.03
2018-05-17T10:30:27.894Z,99329.13
2018-05-17T10:32:54.379Z,99333.55
2018-05-17T10:35:20.751Z,99333.36
2018-05-17T10:37:47.145Z,99328.46
2018-05-17T10:40:14.653Z,99325.75
2018-05-17T10:42:41.150Z,99322.75
2018-05-17T10:45:07.503Z,99318.40
2018-05-17T10:47:34.037Z,99322.45
2018-05-17T10:50:00.404Z,99322.84
2018-05-17T10:52:26.744Z,99340.86
2018-05-17T10:54:53.090Z,99332.31
2018-05-17T10:57:19.481Z,99325.50
2018-05-17T10:59:46.119Z,99328.43
2018-05-17T11:02:12.773Z,99327.10
2018-05-17T11:04:39.124Z,99321.06
2018-05-17T11:07:05.711Z,99326.95
2018-05-17T11:09:32.097Z,99324.06
2018-05-17T11:11:58.740Z,99325.33
2018-05-17T11:14:25.091Z,99316.19
2018-05-17T11:16:52.397Z,99321.27
2018-05-17T11:19:18.973Z,99312.47
2018-05-17T11:21:45.365Z,99316.91
2018-05-17T11:24:13.690Z,99315.42
2018-05-17T11:26:40.150Z,99306.65
2018-05-17T11:29:06.590Z,99307.20
2018-05-17T11:31:33.023Z,99305.05
2018-05-17T11:33:59.859Z,99303.92
2018-05-17T11:36:27.471Z,99307.91
2018-05-17T11:38:53.902Z,99299.54
2018-05-17T11:41:20.547Z,99304.53
2018-05-17T11:43:47.071Z,99298.67
2018-05-17T11:46:13.482Z,99300.53
2018-05-17T11:48:39.934Z,99297.08
2018-05-17T11:51:06.506Z,99286.11
2018-05-17T11:53:32.914Z,99288.75
2018-05-17T11:55:59.281Z,99285.08
2018-05-17T11:58:25.677Z,99289.02
2018-05-17T12:00:52.060Z,99288.09
2018-05-17T12:03:18.719Z,99281.75
2018-05-17T12:05:45.166Z,99283.91
2018-05-17T12:08:11.686Z,99285.97
2018-05-17T12:10:38.308Z,99294.42
2018-05-17T12:13:04.670Z,99286.05
2018-05-17T12:15:31.256Z,99285.03
2018-05-17T12:17:57.687Z,99280.55
2018-05-17T12:20:24.124Z,99276.15
2018-05-17T12:22:50.543Z,99269.09
2018-05-17T12:25:17.085Z,99265.28
2018-05-17T12:27:44.090Z,99260.98
2018-05-17T12:30:10.758Z,99254.98
2018-05-17T12:32:37.163Z,99249.97
2018-05-17T12:35:03.781Z,99252.05
2018-05-17T12:37:30.426Z,99255.48
2018-05-17T12:39:56.950Z,99252.09
2018-05-17T12:42:23.473Z,99253.16
2018-05-17T12:44:49.854Z,99250.27
2018-05-17T12:47:16.550Z,99253.88
2018-05-17T12:49:43.103Z,99245.91
2018-05-17T12:52:09.936Z,99240.21
2018-05-17T12:54:36.519Z,99235.33
2018-05-17T12:57:03.049Z,99237.31
2018-05-17T12:59:29.474Z,99237.34
2018-05-17T13:01:56.072Z,99229.97
2018-05-17T13:04:23.486Z,99231.05
2018-05-17T13:06:49.934Z,99227.39
2018-05-17T13:09:16.295Z,99221.81
2018-05-17T13:11:42.804Z,99221.19
2018-05-17T13:14:09.178Z,99221.02
2018-05-17T13:16:35.664Z,99211.14
2018-05-17T13:19:02.082Z,99206.92
2018-05-17T13:21:28.493Z,99210.05
2018-05-17T13:23:54.918Z,99208.27
2018-05-17T13:26:21.413Z,99200.05
2018-05-17T13:28:47.947Z,99197.34
2018-05-17T13:31:14.413Z,99207.00
2018-05-17T13:33:40.805Z,99207.41
2018-05-17T13:36:07.244Z,99207.15
2018-05-17T13:38:33.704Z,99200.71
2018-05-17T13:41:00.066Z,99205.66
2018-05-17T13:43:26.474Z,99210.34
2018-05-17T13:45:52.946Z,99211.86
2018-05-17T13:48:19.473Z,99207.63
2018-05-17T13:50:45.974Z,99204.89
2018-05-17T13:53:12.401Z,99199.06
2018-05-17T13:55:38.979Z,99198.84
2018-05-17T13:58:05.334Z,99191.29
2018-05-17T14:00:31.733Z,99196.58
2018-05-17T14:02:58.182Z,99193.20
2018-05-17T14:05:24.550Z,99197.05
2018-05-17T14:07:50.979Z,99208.27
2018-05-17T14:10:17.370Z,99197.92
2018-05-17T14:12:43.794Z,99199.78
2018-05-17T14:15:10.368Z,99197.38
2018-05-17T14:17:36.847Z,99203.28
2018-05-17T14:20:03.281Z,99200.61
2018-05-17T14:22:29.814Z,99199.91
2018-05-17T14:24:56.200Z,99197.59
2018-05-17T14:27:22.608Z,99192.95
2018-05-17T14:29:49.154Z,99191.59
2018-05-17T14:32:15.950Z,99194.55
2018-05-17T14:34:42.325Z,99187.80
2018-05-17T14:37:08.801Z,99198.70
2018-05-17T14:39:35.191Z,99196.88
2018-05-17T14:42:01.591Z,99190.51
2018-05-17T14:44:28.054Z,99194.72
2018-05-17T14:46:54.491Z,99193.55
2018-05-17T14:49:20.842Z,99190.97
2018-05-17T14:51:47.225Z,99190.63
2018-05-17T14:54:13.633Z,99187.17
2018-05-17T14:56:40.192Z,99180.30
2018-05-17T14:59:06.679Z,99177.94
2018-05-17T15:01:33.096Z,99179.33
2018-05-17T15:03:59.528Z,99182.70
2018-05-17T15:06:25.925Z,99175.27
2018-05-17T15:08:52.329Z,99176.45
2018-05-17T15:11:18.802Z,99174.68
2018-05-17T15:13:46.177Z,99175.73
2018-05-17T15:16:12.574Z,99170.67
2018-05-17T15:18:38.984Z,99172.86
2018-05-17T15:21:05.388Z,99178.89
2018-05-17T15:23:31.736Z,99185.98
2018-05-17T15:25:58.212Z,99185.14
2018-05-17T15:28:24.630Z,99177.45
2018-05-17T15:30:51.056Z,99178.43
2018-05-17T15:33:17.513Z,99176.33
2018-05-17T15:35:44.065Z,99164.63
2018-05-17T15:38:10.426Z,99174.12
2018-05-17T15:40:36.891Z,99161.69
2018-05-17T15:43:03.270Z,99159.23
2018-05-17T15:45:29.705Z,99160.97
2018-05-17T15:47:56.100Z,99160.55
2018-05-17T15:50:22.620Z,99166.17
2018-05-17T15:52:49.029Z,99158.92
2018-05-17T15:55:15.446Z,99171.13
2018-05-17T15:57:41.899Z,99166.09
2018-05-17T16:00:08.358Z,99157.98
2018-05-17T16:02:34.805Z,99153.55
2018-05-17T16:05:01.336Z,99154.92
2018-05-17T16:07:27.769Z,99166.48
2018-05-17T16:09:54.165Z,99172.98
2018-05-17T16:12:20.612Z,99193.80
2018-05-17T16:14:47.212Z,99205.30
2018-05-17T16:17:13.835Z,99218.55
2018-05-17T16:19:40.288Z,99260.00
2018-05-17T16:22:06.694Z,99294.66
2018-05-17T16:24:33.056Z,99283.23
2018-05-17T16:26:59.457Z,99262.30
2018-05-17T16:29:25.878Z,99292.34
2018-05-17T16:31:52.312Z,99303.07
2018-05-17T16:34:18.638Z,99316.30
2018-05-17T16:36:45.090Z,99320.84
2018-05-17T16:39:12.020Z,99321.13
2018-05-17T16:41:38.397Z,99314.78
2018-05-17T16:44:04.800Z,99305.10
2018-05-17T16:46:31.196Z,99301.98
2018-05-17T16:48:57.554Z,99283.73
2018-05-17T16:51:23.914Z,99296.34
2018-05-17T16:53:50.434Z,99286.46
2018-05-17T16:56:16.816Z,99279.23
2018-05-17T16:58:43.312Z,99279.55
2018-05-17T17:01:09.649Z,99282.80
2018-05-17T17:03:36.038Z,99281.84
2018-05-17T17:06:02.450Z,99276.34
2018-05-17T17:08:28.886Z,99270.58
2018-05-17T17:10:55.366Z,99279.78
2018-05-17T17:13:21.695Z,99284.37
2018-05-17T17:15:48.077Z,99295.13
2018-05-17T17:18:14.488Z,99305.96
2018-05-17T17:20:40.850Z,99304.38
2018-05-17T17:23:07.328Z,99310.97
2018-05-17T17:25:33.837Z,99316.52
2018-05-17T17:28:00.224Z,99337.50
2018-05-17T17:30:26.611Z,99339.94
2018-05-17T17:32:53.006Z,99328.96
2018-05-17T17:35:19.380Z,99335.67
2018-05-17T17:37:45.741Z,99330.58
2018-05-17T17:40:12.107Z,99340.19
2018-05-17T17:42:38.517Z,99340.45
2018-05-17T17:45:04.917Z,99344.98
2018-05-17T17:47:31.303Z,99349.69
2018-05-17T17:49:57.776Z,99352.05
2018-05-17T17:52:24.138Z,99348.23
2018-05-17T17:54:51.530Z,99353.77
2018-05-17T17:57:17.913Z,99352.11
2018-05-17T17:59:44.292Z,99356.05
2018-05-17T18:02:11.003Z,99356.95
2018-05-17T18:04:37.343Z,99360.61
2018-05-17T18:07:03.809Z,99354.06
2018-05-17T18:09:30.153Z,99349.55
2018-05-17T18:11:56.613Z,99351.15
2018-05-17T18:14:23.066Z,99356.13
2018-05-17T18:16:49.407Z,99362.67
2018-05-17T18:19:15.811Z,99361.69
2018-05-17T18:21:42.198Z,99367.27
2018-05-17T18:24:08.618Z,99366.95
2018-05-17T18:26:35.044Z,99375.98
2018-05-17T18:29:01.410Z,99384.59
2018-05-17T18:31:27.808Z,99385.39
2018-05-17T18:33:54.301Z,99392.62
2018-05-17T18:36:20.629Z,99392.86
2018-05-17T18:38:47.024Z,99388.80
2018-05-17T18:41:13.408Z,99392.91
2018-05-17T18:43:39.803Z,99399.06
2018-05-17T18:46:06.198Z,99405.71
2018-05-17T18:48:32.586Z,99407.02
2018-05-17T18:50:58.996Z,99419.14
2018-05-17T18:53:25.409Z,99417.66
2018-05-17T18:55:51.862Z,99426.09
2018-05-17T18:58:18.218Z,99424.80
2018-05-17T19:00:44.613Z,99422.00
2018-05-17T19:03:11.070Z,99423.39
2018-05-17T19:05:37.548Z,99421.29
2018-05-17T19:08:03.959Z,99427.38
2018-05-17T19:10:30.342Z,99429.17
2018-05-17T19:12:56.806Z,99435.58
2018-05-17T19:15:23.176Z,99440.09
2018-05-17T19:17:49.572Z,99438.22
2018-05-17T19:20:15.954Z,99437.52
2018-05-17T19:22:42.471Z,99442.51
2018-05-17T19:25:08.871Z,99450.36
2018-05-17T19:27:35.250Z,99449.05
2018-05-17T19:30:01.634Z,99453.28
2018-05-17T19:32:28.004Z,99456.69
2018-05-17T19:34:54.378Z,99458.95
2018-05-17T19:37:20.820Z,99464.45
2018-05-17T19:39:47.232Z,99465.77
2018-05-17T19:42:13.587Z,99469.17
2018-05-17T19:44:39.986Z,99472.58
2018-05-17T19:47:06.397Z,99483.19
2018-05-17T19:49:32.762Z,99475.09
2018-05-17T19:51:59.159Z,99484.88
2018-05-17T19:54:25.542Z,99483.80
2018-05-17T19:56:52.026Z,99481.75
2018-05-17T19:59:18.359Z,99484.98
2018-05-17T20:01:44.709Z,99489.63
2018-05-17T20:04:11.224Z,99501.61
2018-05-17T20:06:37.657Z,99498.70
2018-05-17T20:09:04.960Z,99498.80
2018-05-17T20:11:31.346Z,99498.41
2018-05-17T20:13:57.749Z,99496.54
2018-05-17T20:16:24.212Z,99504.62
2018-05-17T20:18:50.619Z,99498.31
2018-05-17T20:21:17.014Z,99494.91
2018-05-17T20:23:43.990Z,99501.68
2018-05-17T20:26:10.356Z,99502.33
2018-05-17T20:28:36.775Z,99511.47
2018-05-17T20:31:03.324Z,99517.70
2018-05-17T20:33:29.725Z,99517.50
2018-05-17T20:35:56.130Z,99526.11
2018-05-17T20:38:23.518Z,99534.36
2018-05-17T20:40:49.902Z,99548.64
2018-05-17T20:43:16.259Z,99548.31
2018-05-17T20:45:42.671Z,99547.59
2018-05-17T20:48:09.110Z,99553.55
2018-05-17T20:50:35.482Z,99557.27
2018-05-17T20:53:01.853Z,99554.53
2018-05-17T20:55:28.249Z,99568.64
2018-05-17T20:57:54.706Z,99563.78
2018-05-17T21:00:21.106Z,99562.05
2018-05-17T21:02:47.557Z,99548.90
2018-05-17T21:05:13.921Z,99544.48
2018-05-17T21:07:40.326Z,99547.97
2018-05-17T21:10:06.677Z,99552.34
2018-05-17T21:12:33.077Z,99555.84
2018-05-17T21:15:00.332Z,99558.00
2018-05-17T21:17:26.778Z,99560.80
2018-05-17T21:19:53.198Z,99558.41
2018-05-17T21:22:19.657Z,99553.33
2018-05-17T21:24:46.053Z,99556.09
2018-05-17T21:27:12.548Z,99556.14
2018-05-17T21:29:38.843Z,99553.59
2018-05-17T21:32:05.245Z,99553.45
2018-05-17T21:34:31.593Z,99554.14
2018-05-17T21:36:57.944Z,99556.59
2018-05-17T21:39:24.384Z,99563.39
2018-05-17T21:41:50.798Z,99573.34
2018-05-17T21:44:17.250Z,99570.63
2018-05-17T21:46:43.650Z,99574.03
2018-05-17T21:49:10.037Z,99585.10
2018-05-17T21:51:36.438Z,99583.45
2018-05-17T21:54:03.003Z,99586.00
2018-05-17T21:56:29.414Z,99582.33
2018-05-17T21:58:55.780Z,99585.76
2018-05-17T22:01:22.196Z,99582.75
2018-05-17T22:03:48.654Z,99588.34
2018-05-17T22:06:15.090Z,99587.58
2018-05-17T22:08:41.466Z,99585.81
2018-05-17T22:11:07.814Z,99581.47
2018-05-17T22:13:34.352Z,99582.78
2018-05-17T22:16:00.738Z,99583.78
2018-05-17T22:18:27.197Z,99593.08
2018-05-17T22:20:53.627Z,99592.55
2018-05-17T22:23:20.024Z,99593.45
2018-05-17T22:25:46.447Z,99591.96
2018-05-17T22:28:12.844Z,99596.45
2018-05-17T22:30:39.180Z,99587.86
2018-05-17T22:33:05.575Z,99592.70
2018-05-17T22:35:32.003Z,99588.34
2018-05-17T22:37:58.436Z,99584.05
2018-05-17T22:40:24.861Z,99585.99
2018-05-17T22:42:51.277Z,99583.72
2018-05-17T22:45:17.659Z,99582.36
2018-05-17T22:47:44.069Z,99578.42
2018-05-17T22:50:10.456Z,99580.20
2018-05-17T22:52:36.880Z,99580.06
2018-05-17T22:55:03.466Z,99593.97
2018-05-17T22:57:42.755Z,99587.84
2018-05-17T23:00:17.190Z,99586.17
2018-05-17T23:02:43.443Z,99590.13
2018-05-17T23:05:09.939Z,99578.23
2018-05-17T23:07:36.341Z,99586.73
2018-05-17T23:10:02.863Z,99593.97
2018-05-17T23:12:29.215Z,99588.00
2018-05-17T23:14:55.584Z,99590.87
2018-05-17T23:17:21.978Z,99595.92
2018-05-17T23:19:48.384Z,99597.96
2018-05-17T23:22:16.750Z,99600.66
2018-05-17T23:24:45.120Z,99600.23
2018-05-17T23:27:11.542Z,99604.16
2018-05-17T23:29:37.930Z,99596.95
2018-05-17T23:32:04.314Z,99603.78
2018-05-17T23:34:30.769Z,99602.41
2018-05-17T23:36:57.293Z,99597.52
2018-05-17T23:39:23.744Z,99584.67
2018-05-17T23:41:50.155Z,99593.09
2018-05-17T23:44:16.550Z,99590.37
2018-05-17T23:46:42.930Z,99594.53
2018-05-17T23:49:09.331Z,99590.48
2018-05-17T23:51:35.790Z,99586.36
2018-05-17T23:54:02.176Z,99583.32
2018-05-17T23:56:28.574Z,99585.12
2018-05-17T23:58:54.914Z,99587.19
